Aérodrome :
LOGIN :

S'inscrire | Disclaimer

   EN    FR    IT 

 










Légende :    VFR   VFR Marginal   IFR   IFR Intensif   IFR Très Intensif
Visi : 
Plafond : 
>= 8 km
>= 3000ft
5 à 8 km
1000 à 3000 ft
1500m à 5 km
500 à 1000 ft
800 à 1500m
200 à 500 ft
< 800m
< 200 ft
Symboles :   Orages  Brouillard  Fortes neiges  Fortes précipitations  Vent > 20 kt
SIGMETs :   Divers  Orages  Givrage  Turbulence  Onde Orograph.  Cendres Volcan.







- Altitude de l'aérodrome : 1188 ft


LKLN - Plzen Line

DERNIER METAR :
  • 180148Z AUTO 00000KT 2000 BR VV008 06/06 Q1019

METARs EXPIRÉS :
  • 180144Z AUTO 00000KT 0800 BR SCT007 06/06 Q1019
  • 180120Z AUTO 00000KT 5000 BR SCT240 06/06 Q1019
  • 180100Z AUTO 00000KT 8000 FEW008 06/06 Q1019
  • 180059Z AUTO 00000KT 8000 FEW008 06/06 Q1019
  • 180047Z AUTO 00000KT 3700 FEW008 06/06 Q1019
  • 180008Z AUTO 00000KT 5000 BR NCD 06/06 Q1019
  • 180000Z AUTO VRB01KT 4100 BR FEW008 07/07 Q1019
  • 172345Z AUTO 29001KT 4000 FEW008 07/07 Q1019
  • 172324Z AUTO 00000KT 8000 NCD 06/06 Q1019
  • 172300Z AUTO 00000KT 4400 NCD 08/08 Q1020

TAF N/A
Pas de NOTAMs connus pour ce terrain.



MET'MAP, la Météo Aéronautique d'un coup d'oeil ! - Copyright ORBIFLY Décembre 2007 - Disclaimer

ORBIFLY MET'MAP TEAM :

Programmation & Développement : Alexandra Zaïnal
Conception & Développement : Baudouin d'Aumeries
Co-Programmation & Développement : Marc-Olivier Méhu
Soutien technique & logistique : Manuel Goepfert

Contact : metmap@orbifly.com




SOURCES & CREDITS :

   NOAA